createdAt,value
2022-08-22T00:01:48.859Z,16.77
2022-08-22T00:04:51.723Z,16.75
2022-08-22T00:08:19.893Z,16.76
2022-08-22T00:10:57.722Z,16.72
2022-08-22T00:13:37.010Z,16.73
2022-08-22T00:16:17.719Z,16.73
2022-08-22T00:19:05.712Z,16.73
2022-08-22T00:21:52.938Z,16.72
2022-08-22T00:24:38.878Z,16.70
2022-08-22T00:27:34.133Z,16.71
2022-08-22T00:30:11.519Z,16.68
2022-08-22T00:32:49.488Z,16.69
2022-08-22T00:35:36.461Z,16.69
2022-08-22T00:38:27.073Z,16.67
2022-08-22T00:41:14.408Z,16.65
2022-08-22T00:44:31.540Z,16.64
2022-08-22T00:47:37.055Z,16.61
2022-08-22T00:50:34.334Z,16.60
2022-08-22T00:53:48.145Z,16.60
2022-08-22T00:56:47.204Z,16.58
2022-08-22T00:59:56.570Z,16.57
2022-08-22T01:02:43.725Z,16.57
2022-08-22T01:05:17.178Z,16.54
2022-08-22T01:08:09.491Z,16.56
2022-08-22T01:11:05.247Z,16.55
2022-08-22T01:14:01.721Z,16.53
2022-08-22T01:17:19.144Z,16.52
2022-08-22T01:20:11.210Z,16.47
2022-08-22T01:23:31.279Z,16.46
2022-08-22T01:26:36.308Z,16.45
2022-08-22T01:29:49.530Z,16.44
2022-08-22T01:32:58.511Z,16.42
2022-08-22T01:36:01.342Z,16.43
2022-08-22T01:39:04.759Z,16.43
2022-08-22T01:42:39.236Z,16.43
2022-08-22T01:45:34.933Z,16.39
2022-08-22T01:48:35.586Z,16.41
2022-08-22T01:51:25.822Z,16.43
2022-08-22T01:54:30.065Z,16.42
2022-08-22T01:57:08.127Z,16.43
2022-08-22T01:59:42.503Z,16.41
2022-08-22T02:02:51.612Z,16.42
2022-08-22T02:05:27.603Z,16.39
2022-08-22T02:08:33.464Z,16.39
2022-08-22T02:11:34.842Z,16.38
2022-08-22T02:14:37.898Z,16.37
2022-08-22T02:17:28.335Z,16.36
2022-08-22T02:20:08.893Z,16.37
2022-08-22T02:22:56.759Z,16.38
2022-08-22T02:25:33.156Z,16.39
2022-08-22T02:28:12.755Z,16.41
2022-08-22T02:30:54.325Z,16.42
2022-08-22T02:33:38.718Z,16.43
2022-08-22T02:36:21.174Z,16.44
2022-08-22T02:39:25.935Z,16.45
2022-08-22T02:42:49.377Z,16.46
2022-08-22T02:45:39.733Z,16.46
2022-08-22T02:48:19.484Z,16.46
2022-08-22T02:50:55.058Z,16.46
2022-08-22T02:53:45.596Z,16.47
2022-08-22T02:56:35.045Z,16.46
2022-08-22T02:59:27.283Z,16.46
2022-08-22T03:01:55.880Z,16.44
2022-08-22T03:04:31.790Z,16.42
2022-08-22T03:07:23.041Z,16.43
2022-08-22T03:09:59.362Z,16.40
2022-08-22T03:13:00.780Z,16.44
2022-08-22T03:15:52.891Z,16.43
2022-08-22T03:18:44.656Z,16.41
2022-08-22T03:21:43.050Z,16.40
2022-08-22T03:24:29.478Z,16.40
2022-08-22T03:27:11.721Z,16.41
2022-08-22T03:29:53.587Z,16.42
2022-08-22T03:32:24.333Z,16.38
2022-08-22T03:35:09.550Z,16.40
2022-08-22T03:37:40.491Z,16.40
2022-08-22T03:40:20.259Z,16.43
2022-08-22T03:43:22.976Z,16.45
2022-08-22T03:46:14.906Z,16.43
2022-08-22T03:49:06.278Z,16.45
2022-08-22T03:51:51.390Z,16.46
2022-08-22T03:54:57.857Z,16.47
2022-08-22T03:58:02.341Z,16.45
2022-08-22T04:01:03.659Z,16.43
2022-08-22T04:03:57.671Z,16.40
2022-08-22T04:07:05.899Z,16.38
2022-08-22T04:10:12.722Z,16.34
2022-08-22T04:13:09.880Z,16.33
2022-08-22T04:16:04.256Z,16.29
2022-08-22T04:19:18.510Z,16.26
2022-08-22T04:22:26.770Z,16.22
2022-08-22T04:25:16.840Z,16.19
2022-08-22T04:27:55.878Z,16.14
2022-08-22T04:30:50.620Z,16.13
2022-08-22T04:33:28.396Z,16.08
2022-08-22T04:36:10.120Z,16.06
2022-08-22T04:38:47.781Z,15.98
2022-08-22T04:41:37.897Z,15.96
2022-08-22T04:44:14.328Z,15.94
2022-08-22T04:46:55.462Z,15.93
2022-08-22T04:50:04.513Z,15.92
2022-08-22T04:53:12.372Z,15.91
2022-08-22T04:55:54.119Z,15.88
2022-08-22T04:59:03.765Z,15.85
2022-08-22T05:01:55.663Z,15.87
2022-08-22T05:04:30.542Z,15.89
2022-08-22T05:07:15.922Z,15.92
2022-08-22T05:10:11.630Z,15.92
2022-08-22T05:12:49.618Z,15.93
2022-08-22T05:15:24.421Z,15.93
2022-08-22T05:18:02.830Z,15.94
2022-08-22T05:20:30.904Z,15.94
2022-08-22T05:23:25.062Z,15.96
2022-08-22T05:26:01.118Z,15.96
2022-08-22T05:28:39.808Z,15.99
2022-08-22T05:31:17.042Z,16.02
2022-08-22T05:34:04.522Z,16.06
2022-08-22T05:36:54.461Z,16.13
2022-08-22T05:39:28.094Z,16.16
2022-08-22T05:42:02.955Z,16.23
2022-08-22T05:44:38.125Z,16.27
2022-08-22T05:47:36.447Z,16.34
2022-08-22T05:50:08.880Z,16.39
2022-08-22T05:53:12.831Z,16.48
2022-08-22T05:55:49.214Z,16.56
2022-08-22T05:58:31.740Z,16.63
2022-08-22T06:01:22.803Z,16.67
2022-08-22T06:04:06.960Z,16.72
2022-08-22T06:07:17.414Z,16.78
2022-08-22T06:09:47.722Z,16.82
2022-08-22T06:12:31.835Z,16.86
2022-08-22T06:15:34.609Z,16.91
2022-08-22T06:18:12.766Z,16.97
2022-08-22T06:20:49.389Z,17.07
2022-08-22T06:23:30.004Z,17.18
2022-08-22T06:26:01.339Z,17.25
2022-08-22T06:28:55.228Z,17.36
2022-08-22T06:31:34.477Z,17.45
2022-08-22T06:34:17.275Z,17.54
2022-08-22T06:36:49.769Z,17.58
2022-08-22T06:39:24.977Z,17.66
2022-08-22T06:42:03.516Z,17.73
2022-08-22T06:44:38.919Z,17.81
2022-08-22T06:47:13.001Z,17.86
2022-08-22T06:49:45.473Z,17.88
2022-08-22T06:52:23.345Z,17.93
2022-08-22T06:55:06.148Z,18.03
2022-08-22T06:57:45.334Z,18.09
2022-08-22T07:00:17.115Z,18.16
2022-08-22T07:02:54.665Z,18.23
2022-08-22T07:05:29.503Z,18.32
2022-08-22T07:07:58.017Z,18.39
2022-08-22T07:10:26.050Z,18.52
2022-08-22T07:12:56.890Z,18.63
2022-08-22T07:15:36.604Z,18.73
2022-08-22T07:18:27.315Z,18.86
2022-08-22T07:21:02.797Z,18.94
2022-08-22T07:23:45.983Z,19.02
2022-08-22T07:26:54.389Z,19.15
2022-08-22T07:29:45.624Z,19.29
2022-08-22T07:32:21.002Z,19.40
2022-08-22T07:35:15.822Z,19.51
2022-08-22T07:38:06.374Z,19.59
2022-08-22T07:40:38.567Z,19.65
2022-08-22T07:43:20.983Z,19.68
2022-08-22T07:45:56.617Z,19.76
2022-08-22T07:48:29.944Z,19.81
2022-08-22T07:51:13.567Z,19.89
2022-08-22T07:54:00.910Z,19.96
2022-08-22T07:56:38.044Z,20.06
2022-08-22T07:59:17.145Z,20.17
2022-08-22T08:01:50.019Z,20.24
2022-08-22T08:04:26.105Z,20.32
2022-08-22T08:06:59.527Z,20.33
2022-08-22T08:09:38.762Z,20.34
2022-08-22T08:12:11.050Z,20.45
2022-08-22T08:14:44.351Z,20.58
2022-08-22T08:17:32.342Z,20.65
2022-08-22T08:20:09.012Z,20.74
2022-08-22T08:22:40.702Z,20.87
2022-08-22T08:25:13.163Z,21.10
2022-08-22T08:28:00.275Z,21.37
2022-08-22T08:30:47.505Z,21.62
2022-08-22T08:33:24.865Z,21.72
2022-08-22T08:36:09.966Z,21.79
2022-08-22T08:39:12.557Z,21.96
2022-08-22T08:42:11.950Z,22.05
2022-08-22T08:45:18.694Z,22.18
2022-08-22T08:48:22.561Z,22.36
2022-08-22T08:51:07.345Z,22.43
2022-08-22T08:54:09.214Z,22.52
2022-08-22T08:57:06.771Z,22.44
2022-08-22T09:00:07.619Z,22.36
2022-08-22T09:02:59.423Z,22.38
2022-08-22T09:06:13.289Z,22.62
2022-08-22T09:09:38.556Z,22.85
2022-08-22T09:12:30.169Z,23.04
2022-08-22T09:15:22.181Z,23.10
2022-08-22T09:18:41.371Z,23.25
2022-08-22T09:22:02.858Z,23.30
2022-08-22T09:25:15.594Z,23.29
2022-08-22T09:28:17.306Z,23.34
2022-08-22T09:31:21.928Z,23.42
2022-08-22T09:34:16.913Z,23.48
2022-08-22T09:37:29.711Z,23.44
2022-08-22T09:40:18.843Z,23.43
2022-08-22T09:42:59.282Z,23.53
2022-08-22T09:45:57.487Z,23.62
2022-08-22T09:48:56.398Z,23.63
2022-08-22T09:51:44.914Z,23.69
2022-08-22T09:54:31.409Z,23.75
2022-08-22T09:57:13.865Z,23.86
2022-08-22T09:59:44.716Z,23.92
2022-08-22T10:02:36.242Z,23.92
2022-08-22T10:05:04.014Z,23.98
2022-08-22T10:08:01.967Z,24.10
2022-08-22T10:11:13.424Z,24.24
2022-08-22T10:14:04.959Z,24.37
2022-08-22T10:17:05.587Z,24.46
2022-08-22T10:19:44.409Z,24.59
2022-08-22T10:23:21.040Z,24.68
2022-08-22T10:26:12.945Z,24.67
2022-08-22T10:29:09.048Z,24.69
2022-08-22T10:32:16.361Z,24.78
2022-08-22T10:34:53.339Z,24.87
2022-08-22T10:37:48.987Z,24.96
2022-08-22T10:40:37.939Z,25.00
2022-08-22T10:43:20.069Z,25.00
2022-08-22T10:46:13.834Z,25.02
2022-08-22T10:49:08.043Z,25.03
2022-08-22T10:51:56.501Z,25.04
2022-08-22T10:55:05.709Z,25.20
2022-08-22T10:57:59.021Z,25.34
2022-08-22T11:00:46.046Z,25.45
2022-08-22T11:03:51.561Z,25.57
2022-08-22T11:06:48.907Z,25.69
2022-08-22T11:09:31.192Z,25.99
2022-08-22T11:12:37.253Z,26.29
2022-08-22T11:15:34.751Z,26.49
2022-08-22T11:18:57.999Z,26.41
2022-08-22T11:22:21.614Z,26.41
2022-08-22T11:25:29.191Z,26.37
2022-08-22T11:28:25.330Z,26.39
2022-08-22T11:31:09.523Z,26.43
2022-08-22T11:33:59.239Z,26.45
2022-08-22T11:36:47.354Z,26.48
2022-08-22T11:40:06.119Z,26.57
2022-08-22T11:43:18.229Z,26.73
2022-08-22T11:45:51.855Z,26.84
2022-08-22T11:49:02.462Z,27.03
2022-08-22T11:51:51.772Z,27.22
2022-08-22T11:54:34.828Z,27.46
2022-08-22T11:57:17.612Z,27.56
2022-08-22T11:59:44.950Z,27.63
2022-08-22T12:02:55.058Z,27.63
2022-08-22T12:05:30.818Z,27.69
2022-08-22T12:08:13.412Z,27.79
2022-08-22T12:11:03.440Z,27.87
2022-08-22T12:13:52.551Z,27.97
2022-08-22T12:16:49.290Z,28.15
2022-08-22T12:20:12.755Z,28.30
2022-08-22T12:23:18.155Z,28.37
2022-08-22T12:26:03.685Z,28.33
2022-08-22T12:29:34.176Z,28.26
2022-08-22T12:33:02.181Z,28.11
2022-08-22T12:35:37.450Z,28.11
2022-08-22T12:38:39.915Z,28.21
2022-08-22T12:41:38.317Z,28.19
2022-08-22T12:44:48.640Z,28.06
2022-08-22T12:47:53.591Z,28.02
2022-08-22T12:51:17.581Z,27.95
2022-08-22T12:53:55.747Z,27.82
2022-08-22T12:57:23.744Z,27.78
2022-08-22T13:00:22.965Z,27.80
2022-08-22T13:02:56.582Z,27.83
2022-08-22T13:05:29.357Z,27.89
2022-08-22T13:08:05.373Z,27.78
2022-08-22T13:10:40.200Z,27.73
2022-08-22T13:13:14.514Z,27.80
2022-08-22T13:15:59.739Z,27.79
2022-08-22T13:18:53.432Z,27.85
2022-08-22T13:21:34.674Z,27.88
2022-08-22T13:24:16.783Z,27.92
2022-08-22T13:27:02.251Z,27.97
2022-08-22T13:29:57.396Z,28.00
2022-08-22T13:32:49.922Z,27.98
2022-08-22T13:35:38.315Z,28.04
2022-08-22T13:38:21.019Z,28.10
2022-08-22T13:40:58.218Z,28.12
2022-08-22T13:43:37.945Z,28.07
2022-08-22T13:46:11.181Z,27.94
2022-08-22T13:49:00.562Z,27.89
2022-08-22T13:51:45.302Z,27.80
2022-08-22T13:54:38.947Z,27.74
2022-08-22T13:57:43.560Z,27.72
2022-08-22T14:01:08.846Z,27.64
2022-08-22T14:04:00.855Z,27.55
2022-08-22T14:06:41.173Z,27.49
2022-08-22T14:09:39.741Z,27.47
2022-08-22T14:12:22.952Z,27.46
2022-08-22T14:14:59.535Z,27.42
2022-08-22T14:17:42.848Z,27.32
2022-08-22T14:20:31.954Z,27.27
2022-08-22T14:23:29.323Z,27.23
2022-08-22T14:25:57.692Z,27.25
2022-08-22T14:28:33.353Z,27.34
2022-08-22T14:31:13.756Z,27.58
2022-08-22T14:33:52.263Z,27.74
2022-08-22T14:36:26.929Z,27.83
2022-08-22T14:39:16.521Z,27.91
2022-08-22T14:42:03.927Z,27.97
2022-08-22T14:44:44.372Z,28.01
2022-08-22T14:47:54.568Z,28.15
2022-08-22T14:50:42.132Z,28.34
2022-08-22T14:53:32.280Z,28.30
2022-08-22T14:56:15.374Z,28.18
2022-08-22T14:58:53.587Z,28.09
2022-08-22T15:01:26.322Z,28.06
2022-08-22T15:04:23.946Z,28.07
2022-08-22T15:06:58.617Z,28.09
2022-08-22T15:09:40.488Z,28.17
2022-08-22T15:12:35.626Z,28.34
2022-08-22T15:15:49.439Z,28.61
2022-08-22T15:18:27.844Z,28.80
2022-08-22T15:21:24.538Z,28.74
2022-08-22T15:23:59.647Z,28.57
2022-08-22T15:26:40.003Z,28.33
2022-08-22T15:29:20.599Z,28.32
2022-08-22T15:31:56.583Z,28.51
2022-08-22T15:34:29.328Z,28.55
2022-08-22T15:37:07.851Z,28.56
2022-08-22T15:40:00.542Z,28.54
2022-08-22T15:42:40.056Z,28.55
2022-08-22T15:45:20.270Z,28.63
2022-08-22T15:47:53.680Z,28.68
2022-08-22T15:50:56.848Z,28.71
2022-08-22T15:54:16.065Z,28.66
2022-08-22T15:57:24.425Z,28.71
2022-08-22T16:00:01.505Z,28.66
2022-08-22T16:02:40.005Z,28.63
2022-08-22T16:05:10.543Z,28.56
2022-08-22T16:07:58.438Z,28.55
2022-08-22T16:10:25.790Z,28.53
2022-08-22T16:13:27.347Z,28.52
2022-08-22T16:16:12.707Z,28.42
2022-08-22T16:18:40.178Z,28.33
2022-08-22T16:21:27.885Z,28.27
2022-08-22T16:23:58.435Z,28.16
2022-08-22T16:26:32.064Z,28.14
2022-08-22T16:28:59.494Z,28.28
2022-08-22T16:31:35.999Z,28.53
2022-08-22T16:34:26.821Z,28.74
2022-08-22T16:37:34.609Z,28.78
2022-08-22T16:40:02.451Z,28.59
2022-08-22T16:43:09.755Z,28.47
2022-08-22T16:45:41.855Z,28.37
2022-08-22T16:48:34.632Z,28.33
2022-08-22T16:51:14.716Z,28.41
2022-08-22T16:54:13.181Z,28.62
2022-08-22T16:56:45.737Z,28.69
2022-08-22T16:59:40.986Z,28.79
2022-08-22T17:02:45.113Z,28.90
2022-08-22T17:05:50.902Z,29.03
2022-08-22T17:08:35.113Z,29.09
2022-08-22T17:11:45.082Z,29.23
2022-08-22T17:14:53.758Z,29.28
2022-08-22T17:17:51.254Z,29.41
2022-08-22T17:20:59.673Z,29.44
2022-08-22T17:24:14.085Z,29.41
2022-08-22T17:27:12.169Z,29.28
2022-08-22T17:29:58.696Z,29.24
2022-08-22T17:33:17.709Z,29.21
2022-08-22T17:35:59.924Z,29.19
2022-08-22T17:39:16.690Z,29.17
2022-08-22T17:42:21.409Z,29.11
2022-08-22T17:45:49.583Z,29.04
2022-08-22T17:49:12.784Z,28.93
2022-08-22T17:52:11.059Z,28.81
2022-08-22T17:54:52.367Z,28.77
2022-08-22T17:57:30.168Z,28.71
2022-08-22T18:00:12.030Z,28.61
2022-08-22T18:02:54.839Z,28.48
2022-08-22T18:05:38.088Z,28.34
2022-08-22T18:11:58.503Z,27.79
2022-08-22T18:14:44.720Z,27.55
2022-08-22T18:17:49.382Z,27.35
2022-08-22T18:20:34.539Z,27.11
2022-08-22T18:23:39.263Z,26.90
2022-08-22T18:26:27.196Z,26.66
2022-08-22T18:29:00.724Z,26.46
2022-08-22T18:31:40.456Z,26.28
2022-08-22T18:34:31.196Z,26.07
2022-08-22T18:37:18.496Z,25.87
2022-08-22T18:40:01.289Z,25.68
2022-08-22T18:42:59.888Z,25.49
2022-08-22T18:45:45.779Z,25.29
2022-08-22T18:48:36.855Z,25.12
2022-08-22T18:51:34.976Z,24.95
2022-08-22T18:54:06.781Z,24.73
2022-08-22T18:57:06.693Z,24.58
2022-08-22T19:00:01.598Z,24.41
2022-08-22T19:03:20.751Z,24.25
2022-08-22T19:06:15.604Z,24.07
2022-08-22T19:09:00.846Z,23.94
2022-08-22T19:11:55.892Z,23.79
2022-08-22T19:14:51.826Z,23.61
2022-08-22T19:17:46.547Z,23.44
2022-08-22T19:20:52.459Z,23.28
2022-08-22T19:23:31.997Z,23.19
2022-08-22T19:26:24.527Z,23.13
2022-08-22T19:29:00.158Z,23.05
2022-08-22T19:31:37.218Z,23.01
2022-08-22T19:34:25.657Z,22.96
2022-08-22T19:37:11.504Z,22.87
2022-08-22T19:40:05.261Z,22.80
2022-08-22T19:42:38.111Z,22.74
2022-08-22T19:45:22.102Z,22.72
2022-08-22T19:48:13.130Z,22.67
2022-08-22T19:50:43.648Z,22.62
2022-08-22T19:53:34.613Z,22.61
2022-08-22T19:56:10.814Z,22.58
2022-08-22T19:59:00.091Z,22.55
2022-08-22T20:01:50.857Z,22.52
2022-08-22T20:04:35.337Z,22.48
2022-08-22T20:07:48.646Z,22.44
2022-08-22T20:10:23.723Z,22.39
2022-08-22T20:13:18.418Z,22.36
2022-08-22T20:16:19.755Z,22.33
2022-08-22T20:19:18.379Z,22.30
2022-08-22T20:21:56.784Z,22.28
2022-08-22T20:24:39.581Z,22.27
2022-08-22T20:27:29.452Z,22.25
2022-08-22T20:30:18.147Z,22.23
2022-08-22T20:33:25.466Z,22.21
2022-08-22T20:35:59.143Z,22.16
2022-08-22T20:38:41.383Z,22.15
2022-08-22T20:41:45.446Z,22.13
2022-08-22T20:44:41.679Z,22.10
2022-08-22T20:47:21.242Z,22.07
2022-08-22T20:49:54.619Z,22.05
2022-08-22T20:52:30.103Z,22.05
2022-08-22T20:55:30.517Z,22.05
2022-08-22T20:58:05.954Z,22.03
2022-08-22T21:00:44.468Z,22.02
2022-08-22T21:03:32.711Z,22.02
2022-08-22T21:06:34.924Z,21.99
2022-08-22T21:09:41.007Z,22.00
2022-08-22T21:12:10.604Z,21.97
2022-08-22T21:14:46.149Z,21.98
2022-08-22T21:17:35.464Z,22.00
2022-08-22T21:20:21.221Z,21.97
2022-08-22T21:22:50.432Z,21.93
2022-08-22T21:25:18.043Z,21.92
2022-08-22T21:27:48.456Z,21.90
2022-08-22T21:30:25.537Z,21.89
2022-08-22T21:32:56.155Z,21.86
2022-08-22T21:35:33.891Z,21.84
2022-08-22T21:38:02.238Z,21.82
2022-08-22T21:40:35.873Z,21.79
2022-08-22T21:43:10.970Z,21.77
2022-08-22T21:45:38.399Z,21.73
2022-08-22T21:48:41.173Z,21.72
2022-08-22T21:51:45.909Z,21.67
2022-08-22T21:54:29.459Z,21.63
2022-08-22T21:57:20.238Z,21.60
2022-08-22T21:59:58.989Z,21.56
2022-08-22T22:02:39.952Z,21.52
2022-08-22T22:05:16.175Z,21.45
2022-08-22T22:07:47.479Z,21.39
2022-08-22T22:10:19.690Z,21.33
2022-08-22T22:12:51.857Z,21.25
2022-08-22T22:15:24.641Z,21.19
2022-08-22T22:17:53.570Z,21.10
2022-08-22T22:20:26.223Z,21.04
2022-08-22T22:22:55.188Z,20.96
2022-08-22T22:25:39.883Z,20.89
2022-08-22T22:28:17.218Z,20.80
2022-08-22T22:30:53.373Z,20.73
2022-08-22T22:33:27.027Z,20.65
2022-08-22T22:35:59.150Z,20.58
2022-08-22T22:38:26.779Z,20.52
2022-08-22T22:40:54.335Z,20.44
2022-08-22T22:43:21.785Z,20.39
2022-08-22T22:45:49.749Z,20.32
2022-08-22T22:48:24.235Z,20.25
2022-08-22T22:50:53.767Z,20.19
2022-08-22T22:53:33.681Z,20.12
2022-08-22T22:56:10.427Z,20.03
2022-08-22T22:58:40.017Z,19.97
2022-08-22T23:01:16.750Z,19.92
2022-08-22T23:03:47.355Z,19.85
2022-08-22T23:06:19.865Z,19.79
2022-08-22T23:08:48.438Z,19.75
2022-08-22T23:11:24.447Z,19.69
2022-08-22T23:13:53.337Z,19.63
2022-08-22T23:16:28.489Z,19.59
2022-08-22T23:18:56.772Z,19.53
2022-08-22T23:21:28.966Z,19.49
2022-08-22T23:23:58.975Z,19.43
2022-08-22T23:26:28.207Z,19.38
2022-08-22T23:28:57.299Z,19.33
2022-08-22T23:31:41.025Z,19.27
2022-08-22T23:34:15.861Z,19.21
2022-08-22T23:36:46.713Z,19.15
2022-08-22T23:39:16.532Z,19.10
2022-08-22T23:41:46.577Z,19.05
2022-08-22T23:44:19.330Z,19.00
2022-08-22T23:46:47.510Z,18.95
2022-08-22T23:49:15.976Z,18.92
2022-08-22T23:51:44.727Z,18.87
2022-08-22T23:54:13.327Z,18.83
2022-08-22T23:56:54.915Z,18.79
2022-08-22T23:59:30.876Z,18.74
